sensor_id;sensor_type;location;lat;lon;timestamp;temperature;humidity
38973;DHT22;25333;50.762;4.470;2023-02-01T00:00:15;6.80;99.90
38973;DHT22;25333;50.762;4.470;2023-02-01T00:02:41;6.80;99.90
38973;DHT22;25333;50.762;4.470;2023-02-01T00:05:08;6.80;99.90
38973;DHT22;25333;50.762;4.470;2023-02-01T00:07:35;6.80;99.90
38973;DHT22;25333;50.762;4.470;2023-02-01T00:10:01;6.80;99.90
38973;DHT22;25333;50.762;4.470;2023-02-01T00:12:28;6.80;99.90
38973;DHT22;25333;50.762;4.470;2023-02-01T00:14:54;6.80;99.90
38973;DHT22;25333;50.762;4.470;2023-02-01T00:17:19;6.80;99.90
38973;DHT22;25333;50.762;4.470;2023-02-01T00:19:45;6.90;99.90
38973;DHT22;25333;50.762;4.470;2023-02-01T00:22:11;6.90;99.90
38973;DHT22;25333;50.762;4.470;2023-02-01T00:24:36;6.90;99.90
38973;DHT22;25333;50.762;4.470;2023-02-01T00:27:02;6.80;99.90
38973;DHT22;25333;50.762;4.470;2023-02-01T00:29:27;6.90;99.90
38973;DHT22;25333;50.762;4.470;2023-02-01T00:31:53;6.80;99.90
38973;DHT22;25333;50.762;4.470;2023-02-01T00:34:19;6.80;99.90
38973;DHT22;25333;50.762;4.470;2023-02-01T00:36:46;6.80;99.90
38973;DHT22;25333;50.762;4.470;2023-02-01T00:39:12;6.70;99.90
38973;DHT22;25333;50.762;4.470;2023-02-01T00:41:38;6.70;99.90
38973;DHT22;25333;50.762;4.470;2023-02-01T00:44:04;6.80;99.90
38973;DHT22;25333;50.762;4.470;2023-02-01T00:46:30;6.80;99.90
38973;DHT22;25333;50.762;4.470;2023-02-01T00:48:55;6.70;99.90
38973;DHT22;25333;50.762;4.470;2023-02-01T00:51:23;6.70;99.90
38973;DHT22;25333;50.762;4.470;2023-02-01T00:53:50;6.60;99.90
38973;DHT22;25333;50.762;4.470;2023-02-01T00:56:16;6.50;99.90
38973;DHT22;25333;50.762;4.470;2023-02-01T00:58:42;6.50;99.90
38973;DHT22;25333;50.762;4.470;2023-02-01T01:01:10;6.50;99.90
38973;DHT22;25333;50.762;4.470;2023-02-01T01:03:39;6.40;99.90
38973;DHT22;25333;50.762;4.470;2023-02-01T01:06:10;6.50;99.90
38973;DHT22;25333;50.762;4.470;2023-02-01T01:08:37;6.60;99.90
38973;DHT22;25333;50.762;4.470;2023-02-01T01:11:08;6.60;99.90
38973;DHT22;25333;50.762;4.470;2023-02-01T01:13:34;6.50;99.90
38973;DHT22;25333;50.762;4.470;2023-02-01T01:16:01;6.50;99.90
38973;DHT22;25333;50.762;4.470;2023-02-01T01:18:28;6.50;99.90
38973;DHT22;25333;50.762;4.470;2023-02-01T01:20:54;6.40;99.90
38973;DHT22;25333;50.762;4.470;2023-02-01T01:23:20;6.50;99.90
38973;DHT22;25333;50.762;4.470;2023-02-01T01:25:46;6.40;99.90
38973;DHT22;25333;50.762;4.470;2023-02-01T01:28:11;6.40;99.90
38973;DHT22;25333;50.762;4.470;2023-02-01T01:30:37;6.40;99.90
38973;DHT22;25333;50.762;4.470;2023-02-01T01:33:03;6.40;99.90
38973;DHT22;25333;50.762;4.470;2023-02-01T01:35:30;6.40;99.90
38973;DHT22;25333;50.762;4.470;2023-02-01T01:37:56;6.40;99.90
38973;DHT22;25333;50.762;4.470;2023-02-01T01:40:22;6.40;99.90
38973;DHT22;25333;50.762;4.470;2023-02-01T01:42:48;6.30;99.90
38973;DHT22;25333;50.762;4.470;2023-02-01T01:45:26;6.30;99.90
38973;DHT22;25333;50.762;4.470;2023-02-01T01:47:59;6.30;99.90
38973;DHT22;25333;50.762;4.470;2023-02-01T01:51:06;6.30;99.90
38973;DHT22;25333;50.762;4.470;2023-02-01T01:53:40;6.30;99.90
38973;DHT22;25333;50.762;4.470;2023-02-01T01:56:07;6.30;99.90
38973;DHT22;25333;50.762;4.470;2023-02-01T01:58:34;6.30;99.90
38973;DHT22;25333;50.762;4.470;2023-02-01T02:00:59;6.30;99.90
38973;DHT22;25333;50.762;4.470;2023-02-01T02:03:31;6.30;99.90
38973;DHT22;25333;50.762;4.470;2023-02-01T02:06:02;6.30;99.90
38973;DHT22;25333;50.762;4.470;2023-02-01T02:08:28;6.30;99.90
38973;DHT22;25333;50.762;4.470;2023-02-01T02:10:54;6.40;99.90
38973;DHT22;25333;50.762;4.470;2023-02-01T02:13:34;6.30;99.90
38973;DHT22;25333;50.762;4.470;2023-02-01T02:16:27;6.30;99.90
38973;DHT22;25333;50.762;4.470;2023-02-01T02:41:18;6.40;99.90
38973;DHT22;25333;50.762;4.470;2023-02-01T02:44:12;6.40;99.90
38973;DHT22;25333;50.762;4.470;2023-02-01T02:47:03;6.40;99.90
38973;DHT22;25333;50.762;4.470;2023-02-01T02:50:11;6.40;99.90
38973;DHT22;25333;50.762;4.470;2023-02-01T02:53:05;6.40;99.90
38973;DHT22;25333;50.762;4.470;2023-02-01T02:55:52;6.30;99.90
38973;DHT22;25333;50.762;4.470;2023-02-01T02:58:37;6.40;99.90
38973;DHT22;25333;50.762;4.470;2023-02-01T03:01:21;6.40;99.90
38973;DHT22;25333;50.762;4.470;2023-02-01T03:04:05;6.40;99.90
38973;DHT22;25333;50.762;4.470;2023-02-01T03:06:34;6.40;99.90
38973;DHT22;25333;50.762;4.470;2023-02-01T03:09:05;6.40;99.90
38973;DHT22;25333;50.762;4.470;2023-02-01T03:11:32;6.30;99.90
38973;DHT22;25333;50.762;4.470;2023-02-01T03:14:18;6.30;99.90
38973;DHT22;25333;50.762;4.470;2023-02-01T03:16:53;6.20;99.90
38973;DHT22;25333;50.762;4.470;2023-02-01T03:22:06;6.20;99.90
38973;DHT22;25333;50.762;4.470;2023-02-01T03:27:30;6.10;99.90
38973;DHT22;25333;50.762;4.470;2023-02-01T03:30:12;6.10;99.90
38973;DHT22;25333;50.762;4.470;2023-02-01T03:32:44;6.10;99.90
38973;DHT22;25333;50.762;4.470;2023-02-01T03:35:44;6.10;99.90
38973;DHT22;25333;50.762;4.470;2023-02-01T03:43:53;5.80;99.90
38973;DHT22;25333;50.762;4.470;2023-02-01T03:46:27;5.80;99.90
38973;DHT22;25333;50.762;4.470;2023-02-01T03:49:00;5.90;99.90
38973;DHT22;25333;50.762;4.470;2023-02-01T03:51:28;5.80;99.90
38973;DHT22;25333;50.762;4.470;2023-02-01T03:53:54;5.90;99.90
38973;DHT22;25333;50.762;4.470;2023-02-01T03:56:21;6.00;99.90
38973;DHT22;25333;50.762;4.470;2023-02-01T03:58:48;5.90;99.90
38973;DHT22;25333;50.762;4.470;2023-02-01T04:01:28;5.80;99.90
38973;DHT22;25333;50.762;4.470;2023-02-01T04:03:55;5.80;99.90
38973;DHT22;25333;50.762;4.470;2023-02-01T04:06:21;5.80;99.90
38973;DHT22;25333;50.762;4.470;2023-02-01T04:08:46;5.70;99.90
38973;DHT22;25333;50.762;4.470;2023-02-01T04:11:12;5.70;99.90
38973;DHT22;25333;50.762;4.470;2023-02-01T04:13:38;5.70;99.90
38973;DHT22;25333;50.762;4.470;2023-02-01T04:16:03;5.70;99.90
38973;DHT22;25333;50.762;4.470;2023-02-01T04:18:29;5.60;99.90
38973;DHT22;25333;50.762;4.470;2023-02-01T04:20:55;5.60;99.90
38973;DHT22;25333;50.762;4.470;2023-02-01T04:23:20;5.50;99.90
38973;DHT22;25333;50.762;4.470;2023-02-01T04:25:46;5.50;99.90
38973;DHT22;25333;50.762;4.470;2023-02-01T04:28:12;5.50;99.90
38973;DHT22;25333;50.762;4.470;2023-02-01T04:30:37;5.50;99.90
38973;DHT22;25333;50.762;4.470;2023-02-01T04:33:03;5.40;99.90
38973;DHT22;25333;50.762;4.470;2023-02-01T04:35:32;5.40;99.90
38973;DHT22;25333;50.762;4.470;2023-02-01T04:37:58;5.40;99.90
38973;DHT22;25333;50.762;4.470;2023-02-01T04:40:24;5.40;99.90
38973;DHT22;25333;50.762;4.470;2023-02-01T04:42:50;5.30;99.90
38973;DHT22;25333;50.762;4.470;2023-02-01T04:45:15;5.30;99.90
38973;DHT22;25333;50.762;4.470;2023-02-01T04:47:41;5.30;99.90
38973;DHT22;25333;50.762;4.470;2023-02-01T04:50:07;5.30;99.90
38973;DHT22;25333;50.762;4.470;2023-02-01T04:52:36;5.30;99.90
38973;DHT22;25333;50.762;4.470;2023-02-01T04:55:01;5.30;99.90
38973;DHT22;25333;50.762;4.470;2023-02-01T04:57:28;5.20;99.90
38973;DHT22;25333;50.762;4.470;2023-02-01T04:59:53;5.20;99.90
38973;DHT22;25333;50.762;4.470;2023-02-01T05:02:19;5.10;99.90
38973;DHT22;25333;50.762;4.470;2023-02-01T05:04:45;5.10;99.90
38973;DHT22;25333;50.762;4.470;2023-02-01T05:07:10;5.00;99.90
38973;DHT22;25333;50.762;4.470;2023-02-01T05:09:37;5.00;99.90
38973;DHT22;25333;50.762;4.470;2023-02-01T05:12:02;5.00;99.90
38973;DHT22;25333;50.762;4.470;2023-02-01T05:14:46;4.90;99.90
38973;DHT22;25333;50.762;4.470;2023-02-01T05:17:13;4.90;99.90
38973;DHT22;25333;50.762;4.470;2023-02-01T05:19:38;5.00;99.90
38973;DHT22;25333;50.762;4.470;2023-02-01T05:22:04;5.00;99.90
38973;DHT22;25333;50.762;4.470;2023-02-01T05:24:30;4.90;99.90
38973;DHT22;25333;50.762;4.470;2023-02-01T05:26:55;4.90;99.90
38973;DHT22;25333;50.762;4.470;2023-02-01T05:29:21;4.80;99.90
38973;DHT22;25333;50.762;4.470;2023-02-01T05:31:47;4.80;99.90
38973;DHT22;25333;50.762;4.470;2023-02-01T05:34:14;4.80;99.90
38973;DHT22;25333;50.762;4.470;2023-02-01T05:36:40;4.80;99.90
38973;DHT22;25333;50.762;4.470;2023-02-01T05:39:06;4.70;99.90
38973;DHT22;25333;50.762;4.470;2023-02-01T05:41:31;4.70;99.90
38973;DHT22;25333;50.762;4.470;2023-02-01T05:43:57;4.70;99.90
38973;DHT22;25333;50.762;4.470;2023-02-01T05:46:23;4.70;99.90
38973;DHT22;25333;50.762;4.470;2023-02-01T05:48:48;4.70;99.90
38973;DHT22;25333;50.762;4.470;2023-02-01T05:51:14;4.70;99.90
38973;DHT22;25333;50.762;4.470;2023-02-01T05:53:40;4.60;99.90
38973;DHT22;25333;50.762;4.470;2023-02-01T05:56:05;4.60;99.90
38973;DHT22;25333;50.762;4.470;2023-02-01T05:58:31;4.60;99.90
38973;DHT22;25333;50.762;4.470;2023-02-01T06:01:00;4.50;99.90
38973;DHT22;25333;50.762;4.470;2023-02-01T06:03:26;4.60;99.90
38973;DHT22;25333;50.762;4.470;2023-02-01T06:05:51;4.60;99.90
38973;DHT22;25333;50.762;4.470;2023-02-01T06:08:17;4.50;99.90
38973;DHT22;25333;50.762;4.470;2023-02-01T06:10:43;4.50;99.90
38973;DHT22;25333;50.762;4.470;2023-02-01T06:13:09;4.50;99.90
38973;DHT22;25333;50.762;4.470;2023-02-01T06:15:35;4.50;99.90
38973;DHT22;25333;50.762;4.470;2023-02-01T06:18:03;4.50;99.90
38973;DHT22;25333;50.762;4.470;2023-02-01T06:20:29;4.50;99.90
38973;DHT22;25333;50.762;4.470;2023-02-01T06:22:54;4.60;99.90
38973;DHT22;25333;50.762;4.470;2023-02-01T06:25:22;4.60;99.90
38973;DHT22;25333;50.762;4.470;2023-02-01T06:27:48;4.50;99.90
38973;DHT22;25333;50.762;4.470;2023-02-01T06:30:14;4.50;99.90
38973;DHT22;25333;50.762;4.470;2023-02-01T06:32:40;4.50;99.90
38973;DHT22;25333;50.762;4.470;2023-02-01T06:35:10;4.50;99.90
38973;DHT22;25333;50.762;4.470;2023-02-01T06:37:43;4.50;99.90
38973;DHT22;25333;50.762;4.470;2023-02-01T06:40:10;4.40;99.90
38973;DHT22;25333;50.762;4.470;2023-02-01T06:42:36;4.50;99.90
38973;DHT22;25333;50.762;4.470;2023-02-01T06:45:01;4.40;99.90
38973;DHT22;25333;50.762;4.470;2023-02-01T06:47:27;4.40;99.90
38973;DHT22;25333;50.762;4.470;2023-02-01T06:49:53;4.40;99.90
38973;DHT22;25333;50.762;4.470;2023-02-01T06:52:19;4.30;99.90
38973;DHT22;25333;50.762;4.470;2023-02-01T06:54:44;4.30;99.90
38973;DHT22;25333;50.762;4.470;2023-02-01T06:57:10;4.30;99.90
38973;DHT22;25333;50.762;4.470;2023-02-01T06:59:35;4.30;99.90
38973;DHT22;25333;50.762;4.470;2023-02-01T07:02:01;4.30;99.90
38973;DHT22;25333;50.762;4.470;2023-02-01T07:04:27;4.30;99.90
38973;DHT22;25333;50.762;4.470;2023-02-01T07:06:52;4.30;99.90
38973;DHT22;25333;50.762;4.470;2023-02-01T07:09:18;4.30;99.90
38973;DHT22;25333;50.762;4.470;2023-02-01T07:11:43;4.30;99.90
38973;DHT22;25333;50.762;4.470;2023-02-01T07:14:12;4.20;99.90
38973;DHT22;25333;50.762;4.470;2023-02-01T07:16:38;4.30;99.90
38973;DHT22;25333;50.762;4.470;2023-02-01T07:19:04;4.30;99.90
38973;DHT22;25333;50.762;4.470;2023-02-01T07:21:30;4.20;99.90
38973;DHT22;25333;50.762;4.470;2023-02-01T07:23:55;4.30;99.90
38973;DHT22;25333;50.762;4.470;2023-02-01T07:26:21;4.30;99.90
38973;DHT22;25333;50.762;4.470;2023-02-01T07:28:47;4.30;99.90
38973;DHT22;25333;50.762;4.470;2023-02-01T07:31:15;4.30;99.90
38973;DHT22;25333;50.762;4.470;2023-02-01T07:33:43;4.30;99.90
38973;DHT22;25333;50.762;4.470;2023-02-01T07:36:14;4.30;99.90
38973;DHT22;25333;50.762;4.470;2023-02-01T07:38:41;4.30;99.90
38973;DHT22;25333;50.762;4.470;2023-02-01T07:41:07;4.20;99.90
38973;DHT22;25333;50.762;4.470;2023-02-01T07:43:34;4.20;99.90
38973;DHT22;25333;50.762;4.470;2023-02-01T07:46:00;4.20;99.90
38973;DHT22;25333;50.762;4.470;2023-02-01T07:48:26;4.20;99.90
38973;DHT22;25333;50.762;4.470;2023-02-01T07:51:08;4.20;99.90
38973;DHT22;25333;50.762;4.470;2023-02-01T07:53:35;4.30;99.90
38973;DHT22;25333;50.762;4.470;2023-02-01T07:56:01;4.30;99.90
38973;DHT22;25333;50.762;4.470;2023-02-01T07:58:28;4.30;99.90
38973;DHT22;25333;50.762;4.470;2023-02-01T08:00:54;4.30;99.90
38973;DHT22;25333;50.762;4.470;2023-02-01T08:03:39;4.40;99.90
38973;DHT22;25333;50.762;4.470;2023-02-01T08:06:05;4.40;99.90
38973;DHT22;25333;50.762;4.470;2023-02-01T08:08:31;4.40;99.90
38973;DHT22;25333;50.762;4.470;2023-02-01T08:11:02;4.50;99.90
38973;DHT22;25333;50.762;4.470;2023-02-01T08:13:28;4.50;99.90
38973;DHT22;25333;50.762;4.470;2023-02-01T08:16:02;4.60;99.90
38973;DHT22;25333;50.762;4.470;2023-02-01T08:18:29;4.60;99.90
38973;DHT22;25333;50.762;4.470;2023-02-01T08:20:54;4.60;99.90
38973;DHT22;25333;50.762;4.470;2023-02-01T08:23:21;4.70;99.90
38973;DHT22;25333;50.762;4.470;2023-02-01T08:25:47;4.70;99.90
38973;DHT22;25333;50.762;4.470;2023-02-01T08:28:14;4.80;99.90
38973;DHT22;25333;50.762;4.470;2023-02-01T08:30:40;4.90;99.90
38973;DHT22;25333;50.762;4.470;2023-02-01T08:33:09;4.80;99.90
38973;DHT22;25333;50.762;4.470;2023-02-01T08:35:35;4.90;99.90
38973;DHT22;25333;50.762;4.470;2023-02-01T08:38:01;4.90;99.90
38973;DHT22;25333;50.762;4.470;2023-02-01T08:40:27;4.90;99.90
38973;DHT22;25333;50.762;4.470;2023-02-01T08:42:53;4.90;99.90
38973;DHT22;25333;50.762;4.470;2023-02-01T08:45:22;5.00;99.90
38973;DHT22;25333;50.762;4.470;2023-02-01T08:47:51;5.00;99.90
38973;DHT22;25333;50.762;4.470;2023-02-01T08:50:17;5.10;99.90
38973;DHT22;25333;50.762;4.470;2023-02-01T08:52:43;5.10;99.90
38973;DHT22;25333;50.762;4.470;2023-02-01T08:55:09;5.10;99.90
38973;DHT22;25333;50.762;4.470;2023-02-01T08:57:35;5.10;99.90
38973;DHT22;25333;50.762;4.470;2023-02-01T09:00:02;5.20;99.90
38973;DHT22;25333;50.762;4.470;2023-02-01T09:02:28;5.20;99.90
38973;DHT22;25333;50.762;4.470;2023-02-01T09:04:55;5.20;99.90
38973;DHT22;25333;50.762;4.470;2023-02-01T09:07:21;5.20;99.90
38973;DHT22;25333;50.762;4.470;2023-02-01T09:09:47;5.30;99.90
38973;DHT22;25333;50.762;4.470;2023-02-01T09:12:12;5.40;99.90
38973;DHT22;25333;50.762;4.470;2023-02-01T09:14:38;5.60;99.90
38973;DHT22;25333;50.762;4.470;2023-02-01T09:17:04;5.70;99.90
38973;DHT22;25333;50.762;4.470;2023-02-01T09:19:31;5.80;99.90
38973;DHT22;25333;50.762;4.470;2023-02-01T09:21:58;5.80;99.90
38973;DHT22;25333;50.762;4.470;2023-02-01T09:24:24;5.90;99.90
38973;DHT22;25333;50.762;4.470;2023-02-01T09:26:50;5.90;99.90
38973;DHT22;25333;50.762;4.470;2023-02-01T09:29:15;5.90;99.90
38973;DHT22;25333;50.762;4.470;2023-02-01T09:31:41;6.10;99.90
38973;DHT22;25333;50.762;4.470;2023-02-01T09:34:07;6.30;99.90
38973;DHT22;25333;50.762;4.470;2023-02-01T09:36:33;6.40;99.90
38973;DHT22;25333;50.762;4.470;2023-02-01T09:38:59;6.50;99.90
38973;DHT22;25333;50.762;4.470;2023-02-01T09:44:15;6.50;99.90
38973;DHT22;25333;50.762;4.470;2023-02-01T09:46:42;6.60;99.90
38973;DHT22;25333;50.762;4.470;2023-02-01T09:49:18;6.80;99.90
38973;DHT22;25333;50.762;4.470;2023-02-01T09:51:48;7.00;99.90
38973;DHT22;25333;50.762;4.470;2023-02-01T09:54:25;7.00;99.90
38973;DHT22;25333;50.762;4.470;2023-02-01T09:57:03;7.00;99.90
38973;DHT22;25333;50.762;4.470;2023-02-01T09:59:56;7.20;99.90
38973;DHT22;25333;50.762;4.470;2023-02-01T10:02:26;7.50;99.90
38973;DHT22;25333;50.762;4.470;2023-02-01T10:04:56;7.50;99.90
38973;DHT22;25333;50.762;4.470;2023-02-01T10:08:04;7.50;99.90
38973;DHT22;25333;50.762;4.470;2023-02-01T10:15:05;8.00;99.90
38973;DHT22;25333;50.762;4.470;2023-02-01T10:22:11;8.10;99.90
38973;DHT22;25333;50.762;4.470;2023-02-01T10:24:59;8.20;99.90
38973;DHT22;25333;50.762;4.470;2023-02-01T10:27:35;8.30;99.90
38973;DHT22;25333;50.762;4.470;2023-02-01T10:30:17;8.40;99.90
38973;DHT22;25333;50.762;4.470;2023-02-01T10:32:43;8.30;99.90
38973;DHT22;25333;50.762;4.470;2023-02-01T10:35:24;8.30;99.90
38973;DHT22;25333;50.762;4.470;2023-02-01T10:37:52;8.40;99.90
38973;DHT22;25333;50.762;4.470;2023-02-01T10:42:45;8.50;99.90
38973;DHT22;25333;50.762;4.470;2023-02-01T10:45:19;8.30;99.90
38973;DHT22;25333;50.762;4.470;2023-02-01T10:47:48;8.50;99.90
38973;DHT22;25333;50.762;4.470;2023-02-01T10:53:00;8.50;99.90
38973;DHT22;25333;50.762;4.470;2023-02-01T10:55:29;8.60;99.90
38973;DHT22;25333;50.762;4.470;2023-02-01T10:57:59;8.80;99.90
38973;DHT22;25333;50.762;4.470;2023-02-01T11:00:26;8.80;99.90
38973;DHT22;25333;50.762;4.470;2023-02-01T11:02:52;8.80;99.90
38973;DHT22;25333;50.762;4.470;2023-02-01T11:05:19;9.00;99.90
38973;DHT22;25333;50.762;4.470;2023-02-01T11:07:53;9.10;99.90
38973;DHT22;25333;50.762;4.470;2023-02-01T11:10:40;9.20;99.90
38973;DHT22;25333;50.762;4.470;2023-02-01T11:13:14;9.30;99.90
38973;DHT22;25333;50.762;4.470;2023-02-01T11:15:54;9.40;99.90
38973;DHT22;25333;50.762;4.470;2023-02-01T11:18:26;9.40;99.90
38973;DHT22;25333;50.762;4.470;2023-02-01T11:20:53;9.20;99.90
38973;DHT22;25333;50.762;4.470;2023-02-01T11:23:23;9.30;99.90
38973;DHT22;25333;50.762;4.470;2023-02-01T11:25:54;9.20;99.90
38973;DHT22;25333;50.762;4.470;2023-02-01T11:28:32;8.90;99.90
38973;DHT22;25333;50.762;4.470;2023-02-01T11:31:02;8.90;99.90
38973;DHT22;25333;50.762;4.470;2023-02-01T11:33:33;9.00;99.90
38973;DHT22;25333;50.762;4.470;2023-02-01T11:36:12;9.00;99.90
38973;DHT22;25333;50.762;4.470;2023-02-01T11:38:39;9.10;99.90
38973;DHT22;25333;50.762;4.470;2023-02-01T11:41:25;9.40;99.90
38973;DHT22;25333;50.762;4.470;2023-02-01T11:44:02;9.50;99.90
38973;DHT22;25333;50.762;4.470;2023-02-01T11:46:40;9.50;99.80
38973;DHT22;25333;50.762;4.470;2023-02-01T11:49:23;9.50;99.90
38973;DHT22;25333;50.762;4.470;2023-02-01T12:10:48;9.80;98.50
38973;DHT22;25333;50.762;4.470;2023-02-01T12:19:21;9.80;98.80
38973;DHT22;25333;50.762;4.470;2023-02-01T12:22:00;9.80;98.20
38973;DHT22;25333;50.762;4.470;2023-02-01T12:27:46;10.10;97.60
38973;DHT22;25333;50.762;4.470;2023-02-01T12:30:40;10.00;98.80
38973;DHT22;25333;50.762;4.470;2023-02-01T12:38:54;10.10;98.60
38973;DHT22;25333;50.762;4.470;2023-02-01T12:44:20;10.10;97.90
38973;DHT22;25333;50.762;4.470;2023-02-01T12:46:54;10.00;97.90
38973;DHT22;25333;50.762;4.470;2023-02-01T12:52:23;10.00;97.30
38973;DHT22;25333;50.762;4.470;2023-02-01T12:55:22;10.00;97.90
38973;DHT22;25333;50.762;4.470;2023-02-01T13:00:43;10.00;98.30
38973;DHT22;25333;50.762;4.470;2023-02-01T13:03:34;9.90;98.00
38973;DHT22;25333;50.762;4.470;2023-02-01T13:06:07;9.80;97.90
38973;DHT22;25333;50.762;4.470;2023-02-01T13:08:48;9.90;97.50
38973;DHT22;25333;50.762;4.470;2023-02-01T13:11:24;9.90;97.10
38973;DHT22;25333;50.762;4.470;2023-02-01T13:14:04;9.90;97.40
38973;DHT22;25333;50.762;4.470;2023-02-01T13:16:35;10.00;97.50
38973;DHT22;25333;50.762;4.470;2023-02-01T13:19:28;10.00;97.60
38973;DHT22;25333;50.762;4.470;2023-02-01T13:22:09;10.00;97.40
38973;DHT22;25333;50.762;4.470;2023-02-01T13:27:18;10.10;97.50
38973;DHT22;25333;50.762;4.470;2023-02-01T13:29:56;10.10;97.20
38973;DHT22;25333;50.762;4.470;2023-02-01T13:32:30;10.00;96.80
38973;DHT22;25333;50.762;4.470;2023-02-01T13:43:12;10.30;97.80
38973;DHT22;25333;50.762;4.470;2023-02-01T13:45:50;10.30;97.40
38973;DHT22;25333;50.762;4.470;2023-02-01T13:48:27;10.30;97.40
38973;DHT22;25333;50.762;4.470;2023-02-01T13:50:57;10.30;96.90
38973;DHT22;25333;50.762;4.470;2023-02-01T13:53:32;10.40;97.30
38973;DHT22;25333;50.762;4.470;2023-02-01T13:56:03;10.40;97.20
38973;DHT22;25333;50.762;4.470;2023-02-01T13:58:37;10.30;97.30
38973;DHT22;25333;50.762;4.470;2023-02-01T14:03:53;10.10;97.30
38973;DHT22;25333;50.762;4.470;2023-02-01T14:11:45;10.10;97.30
38973;DHT22;25333;50.762;4.470;2023-02-01T14:16:40;10.00;97.60
38973;DHT22;25333;50.762;4.470;2023-02-01T14:19:29;9.90;97.90
38973;DHT22;25333;50.762;4.470;2023-02-01T14:24:55;9.70;97.30
38973;DHT22;25333;50.762;4.470;2023-02-01T14:27:26;9.70;97.60
38973;DHT22;25333;50.762;4.470;2023-02-01T14:30:01;9.60;97.10
38973;DHT22;25333;50.762;4.470;2023-02-01T14:32:33;9.50;96.90
38973;DHT22;25333;50.762;4.470;2023-02-01T14:35:02;9.50;97.60
38973;DHT22;25333;50.762;4.470;2023-02-01T14:37:33;9.40;97.30
38973;DHT22;25333;50.762;4.470;2023-02-01T14:47:54;9.40;98.00
38973;DHT22;25333;50.762;4.470;2023-02-01T14:53:06;9.40;98.60
38973;DHT22;25333;50.762;4.470;2023-02-01T14:55:49;9.50;98.30
38973;DHT22;25333;50.762;4.470;2023-02-01T15:01:05;9.30;98.40
38973;DHT22;25333;50.762;4.470;2023-02-01T15:06:24;9.20;99.10
38973;DHT22;25333;50.762;4.470;2023-02-01T15:08:55;9.20;99.20
38973;DHT22;25333;50.762;4.470;2023-02-01T15:11:21;9.30;99.30
38973;DHT22;25333;50.762;4.470;2023-02-01T15:13:50;9.20;99.30
38973;DHT22;25333;50.762;4.470;2023-02-01T15:16:17;9.30;99.50
38973;DHT22;25333;50.762;4.470;2023-02-01T15:18:42;9.30;99.10
38973;DHT22;25333;50.762;4.470;2023-02-01T15:21:20;9.20;98.90
38973;DHT22;25333;50.762;4.470;2023-02-01T15:23:47;9.10;99.10
38973;DHT22;25333;50.762;4.470;2023-02-01T15:26:31;9.10;99.40
38973;DHT22;25333;50.762;4.470;2023-02-01T15:29:00;9.10;99.60
38973;DHT22;25333;50.762;4.470;2023-02-01T15:31:37;9.00;99.70
38973;DHT22;25333;50.762;4.470;2023-02-01T15:34:03;9.00;99.40
38973;DHT22;25333;50.762;4.470;2023-02-01T15:36:29;9.00;99.50
38973;DHT22;25333;50.762;4.470;2023-02-01T15:41:51;9.00;99.60
38973;DHT22;25333;50.762;4.470;2023-02-01T15:44:34;8.90;99.40
38973;DHT22;25333;50.762;4.470;2023-02-01T15:47:18;8.90;99.50
38973;DHT22;25333;50.762;4.470;2023-02-01T15:49:47;8.90;99.90
38973;DHT22;25333;50.762;4.470;2023-02-01T15:52:35;8.90;99.90
38973;DHT22;25333;50.762;4.470;2023-02-01T15:55:05;9.00;99.90
38973;DHT22;25333;50.762;4.470;2023-02-01T15:57:34;8.90;99.90
38973;DHT22;25333;50.762;4.470;2023-02-01T16:00:04;8.80;99.90
38973;DHT22;25333;50.762;4.470;2023-02-01T16:02:37;8.80;99.90
38973;DHT22;25333;50.762;4.470;2023-02-01T16:05:21;8.80;99.90
38973;DHT22;25333;50.762;4.470;2023-02-01T16:08:06;8.80;99.90
38973;DHT22;25333;50.762;4.470;2023-02-01T16:10:43;8.70;99.90
38973;DHT22;25333;50.762;4.470;2023-02-01T16:13:10;8.80;99.90
38973;DHT22;25333;50.762;4.470;2023-02-01T16:15:35;8.90;99.90
38973;DHT22;25333;50.762;4.470;2023-02-01T16:18:01;8.80;99.90
38973;DHT22;25333;50.762;4.470;2023-02-01T16:20:27;8.80;99.90
38973;DHT22;25333;50.762;4.470;2023-02-01T16:22:52;8.80;99.90
38973;DHT22;25333;50.762;4.470;2023-02-01T16:25:18;8.70;99.90
38973;DHT22;25333;50.762;4.470;2023-02-01T16:27:44;8.80;99.90
38973;DHT22;25333;50.762;4.470;2023-02-01T16:30:09;8.70;99.90
38973;DHT22;25333;50.762;4.470;2023-02-01T16:32:36;8.70;99.90
38973;DHT22;25333;50.762;4.470;2023-02-01T16:35:04;8.80;99.90
38973;DHT22;25333;50.762;4.470;2023-02-01T16:37:30;8.70;99.90
38973;DHT22;25333;50.762;4.470;2023-02-01T16:39:59;8.70;99.90
38973;DHT22;25333;50.762;4.470;2023-02-01T16:42:24;8.70;99.90
38973;DHT22;25333;50.762;4.470;2023-02-01T16:44:50;8.70;99.90
38973;DHT22;25333;50.762;4.470;2023-02-01T16:47:20;8.70;99.90
38973;DHT22;25333;50.762;4.470;2023-02-01T16:49:46;8.60;99.90
38973;DHT22;25333;50.762;4.470;2023-02-01T16:52:16;8.60;99.90
38973;DHT22;25333;50.762;4.470;2023-02-01T16:54:42;8.60;99.90
38973;DHT22;25333;50.762;4.470;2023-02-01T16:57:12;8.60;99.90
38973;DHT22;25333;50.762;4.470;2023-02-01T16:59:39;8.60;99.90
38973;DHT22;25333;50.762;4.470;2023-02-01T17:02:05;8.60;99.90
38973;DHT22;25333;50.762;4.470;2023-02-01T17:04:30;8.60;99.90
38973;DHT22;25333;50.762;4.470;2023-02-01T17:06:57;8.60;99.90
38973;DHT22;25333;50.762;4.470;2023-02-01T17:09:23;8.60;99.90
38973;DHT22;25333;50.762;4.470;2023-02-01T17:11:50;8.60;99.90
38973;DHT22;25333;50.762;4.470;2023-02-01T17:14:18;8.60;99.90
38973;DHT22;25333;50.762;4.470;2023-02-01T17:16:45;8.60;99.90
38973;DHT22;25333;50.762;4.470;2023-02-01T17:19:17;8.60;99.90
38973;DHT22;25333;50.762;4.470;2023-02-01T17:21:46;8.60;99.90
38973;DHT22;25333;50.762;4.470;2023-02-01T17:24:15;8.60;99.90
38973;DHT22;25333;50.762;4.470;2023-02-01T17:26:42;8.50;99.90
38973;DHT22;25333;50.762;4.470;2023-02-01T17:29:08;8.60;99.90
38973;DHT22;25333;50.762;4.470;2023-02-01T17:31:39;8.50;99.90
38973;DHT22;25333;50.762;4.470;2023-02-01T17:34:06;8.50;99.90
38973;DHT22;25333;50.762;4.470;2023-02-01T17:36:32;8.50;99.90
38973;DHT22;25333;50.762;4.470;2023-02-01T17:38:57;8.40;99.90
38973;DHT22;25333;50.762;4.470;2023-02-01T17:41:23;8.30;99.90
38973;DHT22;25333;50.762;4.470;2023-02-01T17:43:50;8.30;99.90
38973;DHT22;25333;50.762;4.470;2023-02-01T17:46:16;8.40;99.90
38973;DHT22;25333;50.762;4.470;2023-02-01T17:48:52;8.30;99.90
38973;DHT22;25333;50.762;4.470;2023-02-01T17:51:20;8.30;99.90
38973;DHT22;25333;50.762;4.470;2023-02-01T17:53:46;8.20;99.90
38973;DHT22;25333;50.762;4.470;2023-02-01T17:56:17;8.20;99.90
38973;DHT22;25333;50.762;4.470;2023-02-01T17:58:44;8.20;99.90
38973;DHT22;25333;50.762;4.470;2023-02-01T18:01:14;8.20;99.90
38973;DHT22;25333;50.762;4.470;2023-02-01T18:03:41;8.20;99.90
38973;DHT22;25333;50.762;4.470;2023-02-01T18:06:14;8.20;99.90
38973;DHT22;25333;50.762;4.470;2023-02-01T18:08:40;8.20;99.90
38973;DHT22;25333;50.762;4.470;2023-02-01T18:11:21;8.20;99.90
38973;DHT22;25333;50.762;4.470;2023-02-01T18:13:48;8.10;99.90
38973;DHT22;25333;50.762;4.470;2023-02-01T18:16:23;8.10;99.90
38973;DHT22;25333;50.762;4.470;2023-02-01T18:18:49;8.10;99.90